Maran Pythia — SVAQ5 — position and weather

sailwx.info

Track history (hours):
 
Tides and Currents Weather Stations Pressure Air Temp Water Temp Dewpoint Dewpoint Depression Visibility Wind Speed Wind Dir Waves Ship Positions

Maran Pythia

Last reported at 2014-Jul-23 03:33 UTC. Time now 2014-Jul-23 03:47 UTC.
Position N 37°10' W 011°58'.

Length 274 m; draft 15.2 m.

Type: Tanker. MMSI: 240893000.

Date/timePositionNaut miles runAvg speedWind from/ knotsBaromVisibWave heightAir tempDewpointWater temp
2014-Jul-23 03:33N 37°10' W 011°58'1312.9
2014-Jul-23 02:33N 36°58' W 012°03'1312.8
2014-Jul-23 01:33N 36°45' W 012°08'1313.1
2014-Jul-23 00:33N 36°33' W 012°12'1313.0
2014-Jul-22 23:33N 36°21' W 012°17'1313.1
2014-Jul-22 22:32N 36°08' W 012°22'1313.0
2014-Jul-22 21:33N 35°55' W 012°26'1312.8
2014-Jul-22 20:33N 35°43' W 012°31'1313.0
2014-Jul-22 19:33N 35°31' W 012°36'1312.8
2014-Jul-22 18:33N 35°19' W 012°40'17513.5
2014-Jul-22 05:33N 32°31' W 013°42'  
Track history (hours):
 
Tides and Currents Weather Stations Pressure Air Temp Water Temp Dewpoint Dewpoint Depression Visibility Wind Speed Wind Dir Waves Ship Positions

Maran Pythia

Last reported at 2014-Jul-23 03:33 UTC. Time now 2014-Jul-23 03:47 UTC.
Position N 37°10' W 011°58'.

Length 274 m; draft 15.2 m.

Type: Tanker. MMSI: 240893000.

Date/timePositionNaut miles runAvg speedWind from/ knotsBaromVisibWave heightAir tempDewpointWater temp
2014-Jul-23 03:33N 37°10' W 011°58'1312.9
2014-Jul-23 02:33N 36°58' W 012°03'1312.8
2014-Jul-23 01:33N 36°45' W 012°08'1313.1
2014-Jul-23 00:33N 36°33' W 012°12'1313.0
2014-Jul-22 23:33N 36°21' W 012°17'1313.1
2014-Jul-22 22:32N 36°08' W 012°22'1313.0
2014-Jul-22 21:33N 35°55' W 012°26'1312.8
2014-Jul-22 20:33N 35°43' W 012°31'1313.0
2014-Jul-22 19:33N 35°31' W 012°36'1312.8
2014-Jul-22 18:33N 35°19' W 012°40'17513.5
2014-Jul-22 05:33N 32°31' W 013°42'  

Dump ship's entire track history